Time;durP1;ratioP1;P1;durP2;ratioP2;P2;SDS_P1;SDS_P2;PMS_P1;PMS_P2;Temp;Humidity;BMP_temperature;BMP_pressure;BME280_temperature;BME280_humidity;BME280_pressure;Samples;Min_cycle;Max_cycle;Signal;HPM_P1;HPM_P2
2023/01/17 00:01:10;;;;;;;9.23;8.82;;;;;;;;;;5100318;28;20016;-64
2023/01/17 00:11:47;;;;;;;8.73;8.33;;;;;;;;;;5095746;28;20043;-63
2023/01/17 00:14:12;;;;;;;9.63;9.13;;;;;;;;;;5093376;28;20764;-64
2023/01/17 00:16:38;;;;;;;9.07;8.68;;;;;;;;;;5100482;28;20015;-63
2023/01/17 01:33:38;;;;;;;8.85;8.45;;;;;;;;;;5100170;28;20077;-64
2023/01/17 01:36:05;;;;;;;9.18;8.77;;;;;;;;;;5098190;28;20063;-64
2023/01/17 01:38:30;;;;;;;9.15;8.75;;;;;;;;;;5097496;28;20106;-64
2023/01/17 01:40:56;;;;;;;9.32;8.93;;;;;;;;;;5106196;28;20491;-64
2023/01/17 01:43:40;;;;;;;9.48;9.00;;;;;;;;;;5086931;28;20031;-64
2023/01/17 01:46:05;;;;;;;9.63;9.13;;;;;;;;;;5111441;28;20029;-64
2023/01/17 01:48:34;;;;;;;8.80;8.40;;;;;;;;;;5108889;28;20027;-64
2023/01/17 01:51:01;;;;;;;9.27;8.88;;;;;;;;;;5100641;28;20053;-63
2023/01/17 01:53:27;;;;;;;8.90;8.50;;;;;;;;;;5107402;28;20474;-64
2023/01/17 01:55:52;;;;;;;9.00;8.60;;;;;;;;;;5097865;28;20043;-63
2023/01/17 01:58:20;;;;;;;9.10;8.70;;;;;;;;;;5106106;28;20062;-62
2023/01/17 02:00:45;;;;;;;8.98;8.57;;;;;;;;;;5102936;28;20024;-64
2023/01/17 02:03:16;;;;;;;9.07;8.68;;;;;;;;;;5102413;28;20030;-63
2023/01/17 02:05:42;;;;;;;8.88;8.48;;;;;;;;;;5099644;28;20102;-62
2023/01/17 02:08:09;;;;;;;9.02;8.63;;;;;;;;;;5104019;28;20023;-63
2023/01/17 02:10:35;;;;;;;8.82;8.43;;;;;;;;;;5096958;28;20450;-64
2023/01/17 02:13:01;;;;;;;9.40;9.00;;;;;;;;;;5098305;28;20039;-64
2023/01/17 02:15:40;;;;;;;9.25;8.85;;;;;;;;;;5104266;28;20024;-64
2023/01/17 02:18:11;;;;;;;9.35;8.95;;;;;;;;;;5102685;28;20384;-64
2023/01/17 02:20:39;;;;;;;9.20;8.80;;;;;;;;;;5100566;28;20095;-63
2023/01/17 02:23:05;;;;;;;9.60;9.10;;;;;;;;;;5104567;28;20047;-64
2023/01/17 02:25:45;;;;;;;9.32;8.93;;;;;;;;;;5096565;28;20035;-65
2023/01/17 02:28:20;;;;;;;9.00;8.60;;;;;;;;;;5095584;28;20016;-64
2023/01/17 02:30:47;;;;;;;9.10;8.70;;;;;;;;;;5108009;28;20061;-64
2023/01/17 02:33:15;;;;;;;9.40;8.95;;;;;;;;;;5105241;28;20026;-64
2023/01/17 02:35:46;;;;;;;9.00;8.60;;;;;;;;;;5101021;28;20122;-63
2023/01/17 02:38:18;;;;;;;9.10;8.70;;;;;;;;;;5096041;28;20099;-64
2023/01/17 02:40:48;;;;;;;9.00;8.60;;;;;;;;;;5099589;28;20424;-63
2023/01/17 02:43:15;;;;;;;9.75;9.25;;;;;;;;;;5097270;28;20012;-64
2023/01/17 02:45:40;;;;;;;9.23;8.82;;;;;;;;;;5100213;28;20035;-65
2023/01/17 02:48:07;;;;;;;9.15;8.75;;;;;;;;;;5103760;28;20466;-64
2023/01/17 02:50:41;;;;;;;9.10;8.70;;;;;;;;;;5100877;28;20027;-63
2023/01/17 02:53:11;;;;;;;9.23;8.82;;;;;;;;;;5103329;28;20085;-64
2023/01/17 02:55:50;;;;;;;9.10;8.70;;;;;;;;;;5095788;28;20038;-63
2023/01/17 02:58:18;;;;;;;9.10;8.70;;;;;;;;;;5102302;28;20466;-64
2023/01/17 03:00:50;;;;;;;9.63;9.13;;;;;;;;;;5096811;28;20008;-64
2023/01/17 03:03:29;;;;;;;9.30;8.90;;;;;;;;;;5101288;28;20020;-63
2023/01/17 03:05:58;;;;;;;9.07;8.68;;;;;;;;;;5101423;28;20483;-64
2023/01/17 03:08:24;;;;;;;9.10;8.70;;;;;;;;;;5097440;28;20024;-64
2023/01/17 03:10:50;;;;;;;9.98;9.48;;;;;;;;;;5097842;28;20125;-64
2023/01/17 03:13:15;;;;;;;9.02;8.63;;;;;;;;;;5101000;28;20020;-63
2023/01/17 03:15:40;;;;;;;8.85;8.45;;;;;;;;;;5099037;28;20434;-64
2023/01/17 03:18:11;;;;;;;9.55;9.05;;;;;;;;;;5099600;28;20030;-64
2023/01/17 03:20:36;;;;;;;9.23;8.82;;;;;;;;;;5098266;28;20043;-64
2023/01/17 03:23:02;;;;;;;9.20;8.80;;;;;;;;;;5099109;28;20043;-63
2023/01/17 03:25:27;;;;;;;9.15;8.75;;;;;;;;;;5097684;28;20016;-64
2023/01/17 03:27:52;;;;;;;9.55;9.07;;;;;;;;;;5100060;28;20379;-64
2023/01/17 03:30:20;;;;;;;8.93;8.52;;;;;;;;;;5096861;28;20031;-64
2023/01/17 03:32:45;;;;;;;9.23;8.82;;;;;;;;;;5100190;28;20031;-63
2023/01/17 03:35:11;;;;;;;8.90;8.50;;;;;;;;;;5101577;28;20081;-64
2023/01/17 03:37:36;;;;;;;8.82;8.43;;;;;;;;;;5088565;28;20023;-64
2023/01/17 03:40:02;;;;;;;9.30;8.90;;;;;;;;;;5099142;28;20477;-64
2023/01/17 03:42:27;;;;;;;8.93;8.52;;;;;;;;;;5100305;28;20019;-64
2023/01/17 03:44:52;;;;;;;8.75;8.35;;;;;;;;;;5099868;28;20028;-63
2023/01/17 03:47:18;;;;;;;9.07;8.68;;;;;;;;;;5096850;28;20016;-63
2023/01/17 03:49:43;;;;;;;9.00;8.60;;;;;;;;;;5096661;28;20028;-64
2023/01/17 03:52:08;;;;;;;9.32;8.93;;;;;;;;;;5098484;28;20031;-63
2023/01/17 03:54:34;;;;;;;9.38;8.98;;;;;;;;;;5097227;28;20047;-64
2023/01/17 03:56:59;;;;;;;9.13;8.73;;;;;;;;;;5103686;28;20351;-64
2023/01/17 03:59:24;;;;;;;9.25;8.85;;;;;;;;;;5100312;28;20026;-63
2023/01/17 04:01:50;;;;;;;8.70;8.30;;;;;;;;;;5102733;28;20032;-64
2023/01/17 04:04:15;;;;;;;8.88;8.48;;;;;;;;;;5094734;28;20368;-64
2023/01/17 04:06:41;;;;;;;8.85;8.45;;;;;;;;;;5094155;28;20027;-64
2023/01/17 04:09:07;;;;;;;9.32;8.93;;;;;;;;;;5099954;28;20015;-64
2023/01/17 04:11:32;;;;;;;9.05;8.65;;;;;;;;;;5096196;28;20379;-64
2023/01/17 04:13:57;;;;;;;9.30;8.90;;;;;;;;;;5099657;28;20032;-64
2023/01/17 04:16:26;;;;;;;8.80;8.40;;;;;;;;;;5100271;28;20012;-64
2023/01/17 04:18:52;;;;;;;9.15;8.75;;;;;;;;;;5100426;28;20024;-64
2023/01/17 04:21:17;;;;;;;9.07;8.68;;;;;;;;;;5104732;28;20356;-64
2023/01/17 04:23:42;;;;;;;8.85;8.45;;;;;;;;;;5101524;28;20035;-63
2023/01/17 04:26:08;;;;;;;10.02;9.52;;;;;;;;;;5103492;28;20168;-64
2023/01/17 04:28:33;;;;;;;9.25;8.85;;;;;;;;;;5107820;28;20047;-63
2023/01/17 04:30:58;;;;;;;8.82;8.43;;;;;;;;;;5099778;28;20108;-64
2023/01/17 04:33:24;;;;;;;8.88;8.48;;;;;;;;;;5100593;28;20028;-63
2023/01/17 04:35:51;;;;;;;9.15;8.75;;;;;;;;;;5104817;28;20020;-64
2023/01/17 04:38:16;;;;;;;9.25;8.85;;;;;;;;;;5099880;28;20027;-63
2023/01/17 04:40:41;;;;;;;9.18;8.77;;;;;;;;;;5101495;28;20012;-63
2023/01/17 04:43:07;;;;;;;9.00;8.60;;;;;;;;;;5103106;28;20058;-64
2023/01/17 04:45:32;;;;;;;9.63;9.13;;;;;;;;;;5092918;28;20016;-64
2023/01/17 04:48:01;;;;;;;9.88;9.38;;;;;;;;;;5097438;28;20028;-65
2023/01/17 04:50:27;;;;;;;9.23;8.82;;;;;;;;;;5103039;28;20039;-64
2023/01/17 04:52:52;;;;;;;9.43;9.00;;;;;;;;;;5108333;28;20462;-65
2023/01/17 04:55:17;;;;;;;9.27;8.88;;;;;;;;;;5102349;28;20554;-63
2023/01/17 04:57:43;;;;;;;9.00;8.60;;;;;;;;;;5099639;28;20031;-64
2023/01/17 05:00:08;;;;;;;9.38;8.98;;;;;;;;;;5098624;28;20028;-64
2023/01/17 05:02:33;;;;;;;9.95;9.45;;;;;;;;;;5077602;28;20490;-64
2023/01/17 05:04:59;;;;;;;9.52;9.02;;;;;;;;;;5096404;28;20056;-63
2023/01/17 05:07:24;;;;;;;8.95;8.55;;;;;;;;;;5092288;28;20647;-64
2023/01/17 05:09:49;;;;;;;9.48;9.02;;;;;;;;;;5091524;28;20115;-63
2023/01/17 05:12:15;;;;;;;9.18;8.77;;;;;;;;;;5093010;28;20032;-63
2023/01/17 05:14:40;;;;;;;9.55;9.05;;;;;;;;;;5097981;28;20032;-63
2023/01/17 05:17:06;;;;;;;10.48;9.88;;;;;;;;;;5100335;28;20468;-62
2023/01/17 05:19:31;;;;;;;9.15;8.75;;;;;;;;;;5103307;28;20027;-63
2023/01/17 05:22:02;;;;;;;10.10;9.60;;;;;;;;;;5108588;28;20020;-63
2023/01/17 05:24:28;;;;;;;9.25;8.85;;;;;;;;;;5104426;28;20019;-63
2023/01/17 05:26:53;;;;;;;9.55;9.05;;;;;;;;;;5098805;28;20020;-63
2023/01/17 05:29:19;;;;;;;8.93;8.52;;;;;;;;;;5100206;28;20019;-63
2023/01/17 05:31:44;;;;;;;9.95;9.45;;;;;;;;;;5087868;28;20016;-63
2023/01/17 05:34:09;;;;;;;9.10;8.70;;;;;;;;;;5099226;28;20020;-63
2023/01/17 05:36:35;;;;;;;10.75;10.15;;;;;;;;;;5102156;28;20024;-63
2023/01/17 05:39:00;;;;;;;9.95;9.45;;;;;;;;;;5101342;28;20071;-63
2023/01/17 05:41:26;;;;;;;9.20;8.80;;;;;;;;;;5098720;28;20024;-62
2023/01/17 05:43:51;;;;;;;9.27;8.88;;;;;;;;;;5100670;28;20047;-62
2023/01/17 05:46:16;;;;;;;9.27;8.85;;;;;;;;;;5096754;28;20020;-62
2023/01/17 05:48:42;;;;;;;9.98;9.48;;;;;;;;;;5090582;28;20024;-62
2023/01/17 05:51:07;;;;;;;10.38;9.85;;;;;;;;;;5098724;28;20527;-62
2023/01/17 05:53:32;;;;;;;9.50;9.00;;;;;;;;;;5100638;28;20046;-62
2023/01/17 05:55:57;;;;;;;10.40;9.82;;;;;;;;;;5100268;28;20048;-62
2023/01/17 05:58:23;;;;;;;9.77;9.27;;;;;;;;;;5097918;28;20056;-62
2023/01/17 06:00:48;;;;;;;9.63;9.13;;;;;;;;;;5092224;28;20012;-62
2023/01/17 06:03:14;;;;;;;8.93;8.52;;;;;;;;;;5098248;28;20016;-62
2023/01/17 06:05:40;;;;;;;10.20;9.70;;;;;;;;;;5102265;28;20063;-63
2023/01/17 06:08:05;;;;;;;10.05;9.55;;;;;;;;;;5097001;28;20103;-63
2023/01/17 06:10:31;;;;;;;9.70;9.20;;;;;;;;;;5095905;28;20103;-64
2023/01/17 06:13:04;;;;;;;9.45;9.00;;;;;;;;;;5093829;28;20066;-63
2023/01/17 06:15:30;;;;;;;9.90;9.40;;;;;;;;;;5094922;28;20083;-63
2023/01/17 06:17:55;;;;;;;9.10;8.70;;;;;;;;;;5102287;28;20095;-64
2023/01/17 06:20:20;;;;;;;9.60;9.10;;;;;;;;;;5095480;28;20028;-64
2023/01/17 06:22:46;;;;;;;9.10;8.70;;;;;;;;;;5096925;28;20020;-66
2023/01/17 06:25:11;;;;;;;9.35;8.95;;;;;;;;;;5106712;28;20137;-63
2023/01/17 06:27:36;;;;;;;9.20;8.80;;;;;;;;;;5100773;28;20091;-63
2023/01/17 06:30:02;;;;;;;9.60;9.20;;;;;;;;;;5102230;28;20034;-63
2023/01/17 06:32:27;;;;;;;9.18;8.77;;;;;;;;;;5097723;28;20027;-64
2023/01/17 06:34:53;;;;;;;10.73;10.23;;;;;;;;;;5089288;28;20032;-62
2023/01/17 06:37:18;;;;;;;10.25;9.75;;;;;;;;;;5083517;28;20705;-63
2023/01/17 06:39:43;;;;;;;10.15;9.65;;;;;;;;;;5089054;28;20031;-65
2023/01/17 06:42:08;;;;;;;10.45;9.95;;;;;;;;;;5087394;28;20027;-63
2023/01/17 06:44:34;;;;;;;10.00;9.50;;;;;;;;;;5088747;28;20115;-63
2023/01/17 06:46:59;;;;;;;10.82;10.32;;;;;;;;;;5084018;28;20020;-63
2023/01/17 06:49:24;;;;;;;10.95;10.40;;;;;;;;;;5092651;28;20046;-62
2023/01/17 06:51:50;;;;;;;11.07;10.52;;;;;;;;;;5089668;28;20026;-62
2023/01/17 06:54:15;;;;;;;10.18;9.68;;;;;;;;;;5088845;28;20032;-62
2023/01/17 06:56:40;;;;;;;9.90;9.48;;;;;;;;;;5091018;28;20027;-61
2023/01/17 06:59:06;;;;;;;9.77;9.38;;;;;;;;;;5090178;28;20055;-63
2023/01/17 07:01:31;;;;;;;9.45;9.05;;;;;;;;;;5091307;28;20019;-63
2023/01/17 07:03:56;;;;;;;10.00;9.50;;;;;;;;;;5093982;28;20034;-63
2023/01/17 07:06:23;;;;;;;10.40;9.90;;;;;;;;;;5093982;28;20428;-62
2023/01/17 07:08:49;;;;;;;10.00;9.50;;;;;;;;;;5086131;28;20031;-63
2023/01/17 07:11:14;;;;;;;10.20;9.70;;;;;;;;;;5093852;28;20028;-64
2023/01/17 07:13:40;;;;;;;10.82;10.32;;;;;;;;;;5085038;28;20596;-62
2023/01/17 07:16:06;;;;;;;10.40;9.90;;;;;;;;;;5084689;28;20020;-63
2023/01/17 07:18:31;;;;;;;10.23;9.73;;;;;;;;;;5085225;28;20028;-63
2023/01/17 07:20:57;;;;;;;10.77;10.27;;;;;;;;;;5087800;28;20049;-63
2023/01/17 07:23:22;;;;;;;9.45;9.05;;;;;;;;;;5088361;28;20017;-64
2023/01/17 07:25:55;;;;;;;10.23;9.73;;;;;;;;;;5091009;28;20012;-62
2023/01/17 07:28:21;;;;;;;10.68;10.18;;;;;;;;;;5088253;28;20038;-63
2023/01/17 07:30:46;;;;;;;10.30;9.80;;;;;;;;;;5086451;28;20012;-62
2023/01/17 07:33:12;;;;;;;9.30;8.90;;;;;;;;;;5082813;28;20020;-63
2023/01/17 07:35:37;;;;;;;9.38;8.98;;;;;;;;;;5084395;28;20020;-62
2023/01/17 07:38:04;;;;;;;10.13;9.63;;;;;;;;;;5092552;28;20023;-63
2023/01/17 07:40:30;;;;;;;9.90;9.40;;;;;;;;;;5086702;28;20032;-63
2023/01/17 07:43:01;;;;;;;9.73;9.27;;;;;;;;;;5095626;28;20088;-63
2023/01/17 07:45:26;;;;;;;10.10;9.60;;;;;;;;;;5093511;28;20051;-63
2023/01/17 07:47:52;;;;;;;9.95;9.45;;;;;;;;;;5095507;28;20108;-62
2023/01/17 07:50:17;;;;;;;9.90;9.40;;;;;;;;;;5092563;28;20472;-62
2023/01/17 07:52:42;;;;;;;9.40;9.00;;;;;;;;;;5095010;28;20026;-63
2023/01/17 07:55:08;;;;;;;10.30;9.80;;;;;;;;;;5089902;28;20051;-63
2023/01/17 07:57:33;;;;;;;10.02;9.52;;;;;;;;;;5096494;28;20020;-63
2023/01/17 07:59:59;;;;;;;9.93;9.43;;;;;;;;;;5097259;28;20047;-62
2023/01/17 08:02:24;;;;;;;10.02;9.52;;;;;;;;;;5090441;28;20040;-62
2023/01/17 08:04:49;;;;;;;9.75;9.25;;;;;;;;;;5093276;28;20036;-64
2023/01/17 08:07:15;;;;;;;10.18;9.68;;;;;;;;;;5092273;28;20024;-64
2023/01/17 08:09:41;;;;;;;9.10;8.70;;;;;;;;;;5097773;28;20032;-64
2023/01/17 08:12:06;;;;;;;10.38;9.88;;;;;;;;;;5102365;28;20489;-65
2023/01/17 08:14:31;;;;;;;10.23;9.73;;;;;;;;;;5093570;28;20024;-64
2023/01/17 08:17:06;;;;;;;9.85;9.35;;;;;;;;;;5090628;28;20024;-64
2023/01/17 08:19:32;;;;;;;9.60;9.18;;;;;;;;;;5100907;28;20019;-63
2023/01/17 08:21:57;;;;;;;9.93;9.43;;;;;;;;;;5094882;28;20471;-63
2023/01/17 08:24:22;;;;;;;9.82;9.32;;;;;;;;;;5101122;28;20042;-64
2023/01/17 08:26:48;;;;;;;9.68;9.20;;;;;;;;;;5096666;28;20091;-64
2023/01/17 08:29:14;;;;;;;10.18;9.68;;;;;;;;;;5099548;28;20051;-65
2023/01/17 08:31:39;;;;;;;9.48;9.07;;;;;;;;;;5101388;28;20028;-63
2023/01/17 08:34:04;;;;;;;10.20;9.70;;;;;;;;;;5098385;28;20114;-63
2023/01/17 08:36:30;;;;;;;10.07;9.57;;;;;;;;;;5099580;28;20040;-63
2023/01/17 08:38:55;;;;;;;10.38;9.88;;;;;;;;;;5097633;28;20020;-63
2023/01/17 08:41:21;;;;;;;10.15;9.65;;;;;;;;;;5098436;28;20023;-65
2023/01/17 08:43:47;;;;;;;9.95;9.45;;;;;;;;;;5092020;28;20008;-65
2023/01/17 08:46:13;;;;;;;9.05;8.65;;;;;;;;;;5090742;28;20019;-64
2023/01/17 08:48:38;;;;;;;9.43;9.02;;;;;;;;;;5091740;28;20470;-62
2023/01/17 08:51:03;;;;;;;9.02;8.63;;;;;;;;;;5088773;28;20032;-62
2023/01/17 08:53:29;;;;;;;9.00;8.60;;;;;;;;;;5073490;28;20034;-63
2023/01/17 08:55:58;;;;;;;9.50;9.07;;;;;;;;;;5090297;28;20159;-63
2023/01/17 08:58:23;;;;;;;9.90;9.40;;;;;;;;;;5090181;28;20027;-64
2023/01/17 09:00:49;;;;;;;9.95;9.45;;;;;;;;;;5093070;28;20020;-63
2023/01/17 09:03:14;;;;;;;9.73;9.30;;;;;;;;;;5098626;28;20467;-63
2023/01/17 09:05:40;;;;;;;10.20;9.70;;;;;;;;;;5097012;28;20205;-63
2023/01/17 09:08:05;;;;;;;10.48;9.98;;;;;;;;;;5094453;28;20038;-63
2023/01/17 09:10:30;;;;;;;10.05;9.55;;;;;;;;;;5092425;28;20016;-64
2023/01/17 09:12:56;;;;;;;9.82;9.40;;;;;;;;;;5090946;28;20598;-64
2023/01/17 09:15:21;;;;;;;10.07;9.57;;;;;;;;;;5096955;28;20024;-65
2023/01/17 09:17:46;;;;;;;10.50;10.00;;;;;;;;;;5092283;28;20035;-66
2023/01/17 09:20:12;;;;;;;10.82;10.32;;;;;;;;;;5092509;28;20022;-65
2023/01/17 09:22:37;;;;;;;10.48;9.98;;;;;;;;;;5102653;28;21490;-64
2023/01/17 09:25:04;;;;;;;10.90;10.40;;;;;;;;;;5088644;28;20024;-66
2023/01/17 09:27:29;;;;;;;9.35;8.95;;;;;;;;;;5091575;28;20016;-66
2023/01/17 09:29:55;;;;;;;10.35;9.85;;;;;;;;;;5088905;28;20023;-65
2023/01/17 09:32:20;;;;;;;9.63;9.23;;;;;;;;;;5090652;28;20382;-65
2023/01/17 09:34:45;;;;;;;9.60;9.20;;;;;;;;;;5094095;28;20079;-64
2023/01/17 09:37:11;;;;;;;9.38;8.98;;;;;;;;;;5074160;28;20069;-63
2023/01/17 09:39:36;;;;;;;9.98;9.50;;;;;;;;;;5091192;28;20039;-67
2023/01/17 09:42:17;;;;;;;10.02;9.52;;;;;;;;;;5089954;28;20012;-64
2023/01/17 09:44:52;;;;;;;9.80;9.40;;;;;;;;;;5089225;28;20028;-64
2023/01/17 09:47:23;;;;;;;9.88;9.48;;;;;;;;;;5093802;28;20029;-64
2023/01/17 09:49:49;;;;;;;9.77;9.38;;;;;;;;;;5091688;28;20094;-63
2023/01/17 09:52:19;;;;;;;10.65;10.15;;;;;;;;;;5094578;28;20546;-64
2023/01/17 09:54:46;;;;;;;9.80;9.40;;;;;;;;;;5092697;28;20090;-64
2023/01/17 09:57:29;;;;;;;10.50;10.00;;;;;;;;;;5089480;28;20036;-65
2023/01/17 10:00:00;;;;;;;10.05;9.55;;;;;;;;;;5096853;28;20027;-66
2023/01/17 10:02:44;;;;;;;10.05;9.57;;;;;;;;;;5095977;28;20042;-63
2023/01/17 10:05:36;;;;;;;10.05;9.55;;;;;;;;;;5094103;28;20093;-64
2023/01/17 10:08:04;;;;;;;10.30;9.80;;;;;;;;;;5082016;28;20028;-64
2023/01/17 10:10:40;;;;;;;9.80;9.40;;;;;;;;;;5092360;28;20390;-65
2023/01/17 10:13:23;;;;;;;10.00;9.50;;;;;;;;;;5091253;28;20020;-64
2023/01/17 10:15:56;;;;;;;10.00;9.50;;;;;;;;;;5093317;28;20027;-65
2023/01/17 10:18:36;;;;;;;10.00;9.52;;;;;;;;;;5096320;28;20027;-65
2023/01/17 10:21:27;;;;;;;10.63;10.13;;;;;;;;;;5090309;28;20364;-65
2023/01/17 10:24:02;;;;;;;10.15;9.65;;;;;;;;;;5066852;28;20890;-63
2023/01/17 10:26:28;;;;;;;10.60;10.10;;;;;;;;;;5085840;28;20052;-63
2023/01/17 10:28:57;;;;;;;10.68;10.18;;;;;;;;;;5089112;28;20051;-64
2023/01/17 10:31:24;;;;;;;10.40;9.90;;;;;;;;;;5090448;28;20131;-63
2023/01/17 10:33:51;;;;;;;10.80;10.30;;;;;;;;;;5086867;28;20059;-63
2023/01/17 10:36:21;;;;;;;10.13;9.63;;;;;;;;;;5089333;28;20020;-63
2023/01/17 10:38:48;;;;;;;9.52;9.13;;;;;;;;;;5094959;28;20028;-64
2023/01/17 10:41:17;;;;;;;10.23;9.73;;;;;;;;;;5092174;28;20025;-64
2023/01/17 10:43:47;;;;;;;10.05;9.55;;;;;;;;;;5094039;28;20049;-67
2023/01/17 10:46:18;;;;;;;10.35;9.85;;;;;;;;;;5084938;28;20471;-61
2023/01/17 10:48:45;;;;;;;10.23;9.73;;;;;;;;;;5090519;28;20031;-62
2023/01/17 10:51:27;;;;;;;10.82;10.32;;;;;;;;;;5094494;28;20037;-61
2023/01/17 10:53:52;;;;;;;10.85;10.35;;;;;;;;;;5091027;28;20038;-62
2023/01/17 10:56:21;;;;;;;10.68;10.18;;;;;;;;;;5095587;28;20035;-63
2023/01/17 10:58:47;;;;;;;10.43;9.93;;;;;;;;;;5097330;28;20019;-62
2023/01/17 11:01:19;;;;;;;10.32;9.82;;;;;;;;;;5094319;28;20426;-61
2023/01/17 11:03:53;;;;;;;10.55;10.05;;;;;;;;;;5095487;28;20023;-63
2023/01/17 11:06:20;;;;;;;11.15;10.57;;;;;;;;;;5093005;28;20494;-63
2023/01/17 11:08:49;;;;;;;10.55;10.05;;;;;;;;;;5097341;28;20038;-62
2023/01/17 11:11:15;;;;;;;10.93;10.40;;;;;;;;;;5090389;28;20103;-62
2023/01/17 11:13:40;;;;;;;10.80;10.30;;;;;;;;;;5095086;28;20020;-62
2023/01/17 11:16:07;;;;;;;11.00;10.48;;;;;;;;;;5097373;28;20047;-62
2023/01/17 11:18:37;;;;;;;9.93;9.48;;;;;;;;;;5096049;28;20107;-63
2023/01/17 11:21:10;;;;;;;11.20;10.60;;;;;;;;;;5093799;28;20463;-62
2023/01/17 11:23:35;;;;;;;10.85;10.35;;;;;;;;;;5097951;28;20088;-62
2023/01/17 11:26:03;;;;;;;11.70;11.10;;;;;;;;;;5090146;28;20467;-63
2023/01/17 11:28:32;;;;;;;10.40;9.90;;;;;;;;;;5089903;28;20032;-61
2023/01/17 11:30:59;;;;;;;10.52;10.02;;;;;;;;;;5090934;28;20023;-62
2023/01/17 11:33:32;;;;;;;10.98;10.48;;;;;;;;;;5092043;28;20043;-62
2023/01/17 11:35:57;;;;;;;10.65;10.15;;;;;;;;;;5092655;28;20104;-62
2023/01/17 11:38:23;;;;;;;10.65;10.15;;;;;;;;;;5086345;28;20118;-61
2023/01/17 11:40:49;;;;;;;10.73;10.23;;;;;;;;;;5085355;28;20024;-64
2023/01/17 11:43:24;;;;;;;10.98;10.48;;;;;;;;;;5084026;28;20012;-61
2023/01/17 11:46:03;;;;;;;10.57;10.07;;;;;;;;;;5087087;28;20036;-63
2023/01/17 11:48:33;;;;;;;11.05;10.55;;;;;;;;;;5087344;28;20059;-63
2023/01/17 11:50:59;;;;;;;10.85;10.35;;;;;;;;;;5089214;28;20458;-62
2023/01/17 11:53:28;;;;;;;12.73;12.02;;;;;;;;;;5083749;28;20115;-61
2023/01/17 11:55:58;;;;;;;10.57;10.07;;;;;;;;;;5085547;28;20509;-62
2023/01/17 11:58:25;;;;;;;10.30;9.80;;;;;;;;;;5088365;28;20035;-63
2023/01/17 12:00:57;;;;;;;11.02;10.48;;;;;;;;;;5085271;28;20494;-62
2023/01/17 12:03:31;;;;;;;10.57;10.07;;;;;;;;;;5084060;28;20138;-62
2023/01/17 12:05:56;;;;;;;;;;;;;;;;;;5092259;28;20569;-63
2023/01/17 12:08:37;;;;;;;9.50;9.10;;;;;;;;;;5092579;28;19916;-63
2023/01/17 12:11:21;;;;;;;10.65;10.15;;;;;;;;;;5089405;28;20035;-65
2023/01/17 12:14:07;;;;;;;10.43;9.93;;;;;;;;;;5089412;28;20049;-62
2023/01/17 12:16:32;;;;;;;10.00;9.50;;;;;;;;;;5083540;28;20127;-64
2023/01/17 12:19:04;;;;;;;10.18;9.68;;;;;;;;;;5091772;28;20122;-65
2023/01/17 12:21:56;;;;;;;10.07;9.57;;;;;;;;;;5089826;28;20012;-65
2023/01/17 12:24:25;;;;;;;9.52;9.13;;;;;;;;;;5091949;28;20494;-66
2023/01/17 12:26:56;;;;;;;9.88;9.43;;;;;;;;;;5095405;28;20020;-65
2023/01/17 12:29:30;;;;;;;9.60;9.20;;;;;;;;;;5091770;28;20028;-64
2023/01/17 12:31:56;;;;;;;;;;;;;;;;;;5087016;28;20024;-64
2023/01/17 12:34:41;;;;;;;10.17;9.67;;;;;;;;;;5086932;28;19935;-63
2023/01/17 12:37:15;;;;;;;9.55;9.15;;;;;;;;;;5092485;28;20020;-63
2023/01/17 12:39:41;;;;;;;;;;;;;;;;;;5089319;28;20161;-65
2023/01/17 12:42:17;;;;;;;9.18;8.77;;;;;;;;;;5093701;28;20002;-65
2023/01/17 12:44:42;;;;;;;9.50;9.10;;;;;;;;;;5089227;28;20039;-66
2023/01/17 12:47:08;;;;;;;10.20;9.70;;;;;;;;;;5092920;28;20008;-67
2023/01/17 12:49:33;;;;;;;10.15;9.65;;;;;;;;;;5099361;28;20066;-65
2023/01/17 12:52:03;;;;;;;10.20;9.70;;;;;;;;;;5093415;28;20450;-63
2023/01/17 12:54:35;;;;;;;9.75;9.30;;;;;;;;;;5089246;28;20048;-63
2023/01/17 12:57:03;;;;;;;10.30;9.80;;;;;;;;;;5097568;28;20020;-65
2023/01/17 12:59:31;;;;;;;9.38;8.98;;;;;;;;;;5084748;28;20024;-65
2023/01/17 13:01:58;;;;;;;9.60;9.20;;;;;;;;;;5094872;28;20077;-65
2023/01/17 13:04:30;;;;;;;10.27;9.77;;;;;;;;;;5090613;28;20031;-66
2023/01/17 13:06:56;;;;;;;10.10;9.60;;;;;;;;;;5087627;28;20095;-66
2023/01/17 13:09:22;;;;;;;9.57;9.18;;;;;;;;;;5096213;28;20439;-63
2023/01/17 13:11:49;;;;;;;9.57;9.18;;;;;;;;;;5089463;28;20098;-64
2023/01/17 13:14:14;;;;;;;9.73;9.32;;;;;;;;;;5092801;28;20419;-64
2023/01/17 13:16:40;;;;;;;9.63;9.23;;;;;;;;;;5094932;28;20038;-64
2023/01/17 13:19:11;;;;;;;10.00;9.50;;;;;;;;;;5096020;28;20051;-66
2023/01/17 13:21:36;;;;;;;9.80;9.40;;;;;;;;;;5097306;28;20024;-65
2023/01/17 13:24:11;;;;;;;10.20;9.70;;;;;;;;;;5098937;28;20328;-65
2023/01/17 13:26:45;;;;;;;9.70;9.30;;;;;;;;;;5099118;28;20042;-65
2023/01/17 13:29:11;;;;;;;9.82;9.40;;;;;;;;;;5100610;28;20044;-64
2023/01/17 13:31:36;;;;;;;9.73;9.32;;;;;;;;;;5095497;28;20016;-64
2023/01/17 13:34:07;;;;;;;10.10;9.60;;;;;;;;;;5095596;28;20383;-65
2023/01/17 13:36:51;;;;;;;10.25;9.75;;;;;;;;;;5098650;28;20019;-64
2023/01/17 13:39:26;;;;;;;10.45;9.95;;;;;;;;;;5089718;28;20059;-66
2023/01/17 13:41:53;;;;;;;10.00;9.50;;;;;;;;;;5087981;28;20028;-66
2023/01/17 13:44:23;;;;;;;10.35;9.85;;;;;;;;;;5092586;28;20488;-64
2023/01/17 13:47:07;;;;;;;9.50;9.10;;;;;;;;;;5098150;28;20032;-63
2023/01/17 13:49:32;;;;;;;10.18;9.68;;;;;;;;;;5089559;28;20107;-63
2023/01/17 13:52:04;;;;;;;10.15;9.65;;;;;;;;;;5090003;28;20543;-64
2023/01/17 13:54:33;;;;;;;9.52;9.13;;;;;;;;;;5089995;28;20071;-66
2023/01/17 13:57:17;;;;;;;10.00;9.50;;;;;;;;;;5087079;28;20031;-63
2023/01/17 13:59:42;;;;;;;10.65;10.15;;;;;;;;;;5095528;28;20073;-63
2023/01/17 14:02:34;;;;;;;11.13;10.57;;;;;;;;;;5089111;28;20059;-65
2023/01/17 14:05:07;;;;;;;10.18;9.68;;;;;;;;;;5088588;28;20070;-62
2023/01/17 14:07:34;;;;;;;10.40;9.90;;;;;;;;;;5091649;28;20021;-63
2023/01/17 14:09:59;;;;;;;10.38;9.88;;;;;;;;;;5093506;28;20035;-63
2023/01/17 14:12:26;;;;;;;10.23;9.73;;;;;;;;;;5089515;28;20051;-63
2023/01/17 14:14:55;;;;;;;10.98;10.48;;;;;;;;;;5094938;28;20027;-63
2023/01/17 14:17:21;;;;;;;10.40;9.90;;;;;;;;;;5099457;28;20509;-65
2023/01/17 14:20:07;;;;;;;10.52;10.02;;;;;;;;;;5093884;28;20440;-66
2023/01/17 14:22:34;;;;;;;10.85;10.35;;;;;;;;;;5040958;28;21613;-64
2023/01/17 14:25:16;;;;;;;10.18;9.68;;;;;;;;;;5092873;28;20020;-63
2023/01/17 14:27:41;;;;;;;10.25;9.75;;;;;;;;;;5095991;28;20142;-63
2023/01/17 14:30:16;;;;;;;10.50;10.00;;;;;;;;;;5094556;28;20111;-62
2023/01/17 14:32:42;;;;;;;9.82;9.38;;;;;;;;;;5090188;28;20019;-64
2023/01/17 14:35:19;;;;;;;10.77;10.27;;;;;;;;;;5093882;28;20016;-63
2023/01/17 14:37:49;;;;;;;9.77;9.38;;;;;;;;;;5097637;28;20108;-61
2023/01/17 14:40:17;;;;;;;10.70;10.20;;;;;;;;;;5088562;28;20168;-63
2023/01/17 14:42:43;;;;;;;10.20;9.70;;;;;;;;;;5094555;28;20372;-63
2023/01/17 14:45:13;;;;;;;10.25;9.75;;;;;;;;;;5094385;28;20032;-64
2023/01/17 14:47:38;;;;;;;11.93;11.32;;;;;;;;;;5094982;28;20073;-64
2023/01/17 14:50:33;;;;;;;10.10;9.60;;;;;;;;;;5097667;28;20426;-64
2023/01/17 14:53:11;;;;;;;10.10;9.60;;;;;;;;;;5080028;28;20044;-63
2023/01/17 14:55:37;;;;;;;9.57;9.18;;;;;;;;;;5096739;28;20044;-64
2023/01/17 14:58:02;;;;;;;9.98;9.48;;;;;;;;;;5096696;28;20030;-63
2023/01/17 15:00:28;;;;;;;10.10;9.60;;;;;;;;;;5095170;28;20012;-62
2023/01/17 15:02:55;;;;;;;10.07;9.57;;;;;;;;;;5092377;28;20390;-63
2023/01/17 15:05:22;;;;;;;9.65;9.25;;;;;;;;;;5102019;28;20023;-67
2023/01/17 15:07:51;;;;;;;10.55;10.05;;;;;;;;;;5096904;28;20019;-66
2023/01/17 15:10:20;;;;;;;10.25;9.75;;;;;;;;;;5096733;28;20054;-64
2023/01/17 15:12:45;;;;;;;10.05;9.55;;;;;;;;;;5092838;28;20487;-65
2023/01/17 15:15:30;;;;;;;11.32;10.73;;;;;;;;;;5093563;28;20020;-64
2023/01/17 15:17:55;;;;;;;;;;;;;;;;;;5100073;28;20027;-65
2023/01/17 15:20:21;;;;;;;9.45;9.05;;;;;;;;;;5094644;28;20435;-65
2023/01/17 15:22:46;;;;;;;9.00;8.60;;;;;;;;;;5096930;28;20020;-65
2023/01/17 15:25:12;;;;;;;9.55;9.15;;;;;;;;;;5096026;28;20422;-65
2023/01/17 15:27:37;;;;;;;9.55;9.15;;;;;;;;;;5097565;28;20059;-65
2023/01/17 15:30:05;;;;;;;10.18;9.68;;;;;;;;;;5094533;28;20025;-63
2023/01/17 15:32:30;;;;;;;9.88;9.40;;;;;;;;;;5089818;28;20047;-64
2023/01/17 15:34:58;;;;;;;11.15;10.55;;;;;;;;;;5087311;28;20493;-65
2023/01/17 15:37:26;;;;;;;10.88;10.35;;;;;;;;;;5085956;28;20085;-63
2023/01/17 15:40:00;;;;;;;10.40;9.90;;;;;;;;;;5090456;28;20397;-64
2023/01/17 15:42:27;;;;;;;9.88;9.38;;;;;;;;;;5091467;28;20487;-64
2023/01/17 15:44:54;;;;;;;9.70;9.20;;;;;;;;;;5087141;28;20032;-63
2023/01/17 15:47:26;;;;;;;10.25;9.75;;;;;;;;;;5084853;28;20016;-63
2023/01/17 15:49:52;;;;;;;11.40;10.80;;;;;;;;;;5081615;28;20030;-65
2023/01/17 15:52:17;;;;;;;10.13;9.63;;;;;;;;;;5094823;28;20028;-64
2023/01/17 15:54:46;;;;;;;10.75;10.25;;;;;;;;;;5088920;28;20039;-65
2023/01/17 15:57:26;;;;;;;9.82;9.32;;;;;;;;;;5086208;28;20047;-65
2023/01/17 15:59:54;;;;;;;9.90;9.40;;;;;;;;;;5086923;28;20039;-63
2023/01/17 16:02:32;;;;;;;9.63;9.20;;;;;;;;;;5086150;28;20074;-66
2023/01/17 16:04:58;;;;;;;9.40;9.00;;;;;;;;;;5087960;28;20020;-65